Time;durP1;ratioP1;P1;durP2;ratioP2;P2;SDS_P1;SDS_P2;PMS_P1;PMS_P2;Temp;Humidity;BMP_temperature;BMP_pressure;BME280_temperature;BME280_humidity;BME280_pressure;Samples;Min_cycle;Max_cycle;Signal;HPM_P1;HPM_P2
2022/04/07 00:00:32;;;;;;;2.90;0.60;;;;;;;16.60;48.49;99198.94;4956822;28;20048;-67
2022/04/07 00:02:58;;;;;;;3.97;0.73;;;;;;;16.61;46.73;99205.19;4956959;28;20054;-69
2022/04/07 00:05:23;;;;;;;1.23;1.08;;;;;;;16.62;47.08;99209.53;4955566;29;20473;-67
2022/04/07 00:07:49;;;;;;;3.10;0.73;;;;;;;16.65;46.85;99201.84;4954635;28;20039;-67
2022/04/07 00:10:14;;;;;;;1.30;0.82;;;;;;;16.66;46.80;99198.09;4955829;29;20027;-67
2022/04/07 00:12:39;;;;;;;2.10;0.40;;;;;;;16.68;47.79;99196.00;4956690;28;20023;-67
2022/04/07 00:15:05;;;;;;;0.47;0.47;;;;;;;16.73;48.30;99192.69;4956692;29;20057;-67
2022/04/07 00:17:30;;;;;;;0.70;0.55;;;;;;;16.76;48.10;99184.16;4956690;28;20026;-67
2022/04/07 00:19:56;;;;;;;1.55;0.52;;;;;;;16.78;47.20;99176.66;4956693;29;20038;-67
2022/04/07 00:22:21;;;;;;;1.83;0.57;;;;;;;16.82;46.69;99176.03;4956493;28;20039;-67
2022/04/07 00:24:46;;;;;;;5.18;0.55;;;;;;;16.84;47.65;99173.09;4956500;28;20027;-67
2022/04/07 00:27:12;;;;;;;3.47;1.08;;;;;;;16.84;47.47;99173.94;4956778;28;20023;-67
2022/04/07 00:29:37;;;;;;;1.60;0.63;;;;;;;16.84;48.22;99163.13;4966173;28;20037;-67
2022/04/07 00:32:05;;;;;;;3.20;0.60;;;;;;;16.85;48.01;99169.38;4976025;28;20037;-67
2022/04/07 00:34:31;;;;;;;3.58;0.60;;;;;;;16.84;47.07;99160.44;4975731;28;20105;-67
2022/04/07 00:36:56;;;;;;;5.00;0.50;;;;;;;16.83;46.75;99156.03;4974623;28;20076;-67
2022/04/07 00:39:22;;;;;;;3.03;1.02;;;;;;;16.83;48.00;99156.03;4975671;28;20026;-68
2022/04/07 00:41:48;;;;;;;1.45;0.47;;;;;;;16.84;46.61;99151.47;4974393;28;20030;-67
2022/04/07 00:44:13;;;;;;;0.95;0.40;;;;;;;16.85;47.43;99143.16;4974423;28;20026;-67
2022/04/07 00:46:39;;;;;;;1.17;0.60;;;;;;;16.88;46.51;99145.44;4975482;28;20026;-67
2022/04/07 00:49:05;;;;;;;2.83;0.50;;;;;;;16.91;47.03;99136.09;4974379;28;20036;-67
2022/04/07 00:51:32;;;;;;;1.23;0.40;;;;;;;16.89;47.75;99125.47;4975764;28;20039;-67
2022/04/07 00:53:57;;;;;;;1.85;0.50;;;;;;;16.92;46.67;99128.81;4974193;28;20026;-67
2022/04/07 00:56:24;;;;;;;0.88;0.50;;;;;;;16.95;46.92;99114.81;4975281;28;20030;-68
2022/04/07 00:58:49;;;;;;;2.80;0.57;;;;;;;16.98;47.46;99114.41;4974234;28;20066;-67
2022/04/07 01:01:17;;;;;;;0.75;0.20;;;;;;;16.99;46.18;99110.66;4975147;28;20552;-68
2022/04/07 01:03:43;;;;;;;0.52;0.38;;;;;;;16.99;47.47;99108.81;4975591;28;20030;-67
2022/04/07 01:06:08;;;;;;;0.50;0.50;;;;;;;17.01;47.49;99104.00;4975125;28;20031;-67
2022/04/07 01:08:36;;;;;;;5.50;0.60;;;;;;;17.05;46.06;99093.59;4975364;28;20023;-67
2022/04/07 01:11:02;;;;;;;2.10;0.60;;;;;;;17.08;47.10;99099.41;4957209;28;20085;-67
2022/04/07 01:13:49;;;;;;;1.27;0.63;;;;;;;17.09;47.49;99084.81;4955650;28;20023;-67
2022/04/07 01:16:16;;;;;;;2.15;0.73;;;;;;;17.09;46.04;99084.00;4955670;28;20370;-67
2022/04/07 01:18:41;;;;;;;1.85;0.70;;;;;;;17.11;47.00;99081.91;4955614;28;20031;-67
2022/04/07 01:21:09;;;;;;;1.60;0.50;;;;;;;17.15;47.61;99083.13;4955643;28;20046;-67
2022/04/07 01:23:35;;;;;;;3.20;1.10;;;;;;;17.16;47.73;99082.94;4955599;28;20035;-67
2022/04/07 01:26:04;;;;;;;3.00;1.02;;;;;;;17.17;47.65;99078.38;4955512;28;20027;-66
2022/04/07 01:28:29;;;;;;;1.90;0.80;;;;;;;17.16;46.55;99079.41;4955452;28;20495;-67
2022/04/07 01:30:55;;;;;;;2.90;0.77;;;;;;;17.14;47.08;99066.06;4955475;29;20027;-68
2022/04/07 01:33:21;;;;;;;2.58;0.70;;;;;;;17.14;47.56;99054.44;4954612;29;20038;-67
2022/04/07 01:35:46;;;;;;;2.03;0.70;;;;;;;17.10;47.47;99042.38;4955256;28;20461;-66
2022/04/07 01:38:12;;;;;;;1.80;0.95;;;;;;;17.09;47.72;99051.53;4955454;28;20035;-67
2022/04/07 01:40:37;;;;;;;0.75;0.70;;;;;;;17.09;47.73;99051.53;4955419;28;20038;-67
2022/04/07 01:43:05;;;;;;;3.92;0.68;;;;;;;17.11;47.52;99038.63;4955517;28;20496;-66
2022/04/07 01:45:33;;;;;;;3.25;0.80;;;;;;;17.09;47.21;99038.00;4953990;29;20028;-67
2022/04/07 01:47:59;;;;;;;2.50;0.68;;;;;;;17.09;48.05;99036.13;4938431;29;20040;-67
2022/04/07 01:50:25;;;;;;;0.77;0.50;;;;;;;17.08;46.85;99033.66;4955771;28;20031;-67
2022/04/07 01:52:51;;;;;;;0.60;0.57;;;;;;;17.08;47.94;99033.66;4974554;28;20395;-66
2022/04/07 01:55:17;;;;;;;1.98;0.60;;;;;;;17.07;46.44;99030.09;4974774;28;20383;-67
2022/04/07 01:57:44;;;;;;;2.22;0.73;;;;;;;17.06;47.80;99027.59;4973734;28;20102;-67
2022/04/07 02:00:09;;;;;;;2.40;0.80;;;;;;;17.06;47.38;99030.31;4973271;28;20034;-67
2022/04/07 02:02:35;;;;;;;1.05;0.60;;;;;;;17.06;47.76;99024.88;4974434;28;20085;-67
2022/04/07 02:05:10;;;;;;;0.90;0.70;;;;;;;17.06;47.31;99017.63;4974531;28;20027;-67
2022/04/07 02:07:37;;;;;;;1.08;0.50;;;;;;;17.07;48.23;99016.56;4974218;28;20027;-67
2022/04/07 02:10:03;;;;;;;0.65;0.60;;;;;;;17.07;47.58;99005.75;4973159;28;20027;-67
2022/04/07 02:12:29;;;;;;;1.05;0.45;;;;;;;17.07;46.94;99005.75;4973376;28;20428;-67
2022/04/07 02:14:59;;;;;;;1.08;0.43;;;;;;;17.08;47.17;98998.47;4973021;28;20078;-67
2022/04/07 02:17:25;;;;;;;3.17;0.70;;;;;;;17.05;47.45;98997.03;4974436;28;20031;-67
2022/04/07 02:19:55;;;;;;;6.40;1.13;;;;;;;17.07;47.82;98981.41;4974337;28;20035;-67
2022/04/07 02:22:20;;;;;;;0.90;0.40;;;;;;;17.08;47.25;98980.38;4973127;28;20027;-67
2022/04/07 02:24:47;;;;;;;1.67;0.57;;;;;;;17.08;46.92;98972.25;4956870;28;20421;-66
2022/04/07 02:27:13;;;;;;;0.93;0.40;;;;;;;17.11;47.41;98973.69;4955473;28;20081;-66
2022/04/07 02:29:38;;;;;;;3.65;0.80;;;;;;;17.11;46.44;98957.47;4955268;28;20066;-67
2022/04/07 02:32:04;;;;;;;2.50;0.70;;;;;;;17.11;47.56;98962.88;4958869;28;20501;-67
2022/04/07 02:34:30;;;;;;;1.73;0.47;;;;;;;17.11;46.51;98957.47;4959093;28;20539;-67
2022/04/07 02:36:55;;;;;;;0.82;0.52;;;;;;;17.11;47.60;98952.06;4958712;28;20023;-66
2022/04/07 02:39:21;;;;;;;1.27;0.75;;;;;;;17.10;47.20;98940.41;4958976;28;20493;-67
2022/04/07 02:41:47;;;;;;;3.45;0.50;;;;;;;17.11;47.11;98946.66;4961787;28;20019;-67
2022/04/07 02:44:12;;;;;;;2.30;0.70;;;;;;;17.12;46.97;98953.69;4977841;28;20026;-67
2022/04/07 02:46:38;;;;;;;1.50;0.50;;;;;;;17.13;46.30;98933.72;4978025;28;20543;-66
2022/04/07 02:49:04;;;;;;;1.88;0.47;;;;;;;17.16;47.08;98917.06;4977629;28;20084;-67
2022/04/07 02:51:31;;;;;;;1.27;0.60;;;;;;;17.17;46.91;98905.19;4977594;28;20054;-67
2022/04/07 02:53:59;;;;;;;4.43;0.75;;;;;;;17.19;47.62;98913.91;4977593;28;20034;-67
2022/04/07 02:56:25;;;;;;;1.13;0.55;;;;;;;17.20;46.41;98908.25;4977583;28;20023;-68
2022/04/07 02:58:51;;;;;;;6.97;1.48;;;;;;;17.21;46.83;98898.28;4977361;28;20030;-67
2022/04/07 03:01:17;;;;;;;2.92;0.68;;;;;;;17.20;47.45;98892.03;4977236;28;20070;-67
2022/04/07 03:03:43;;;;;;;2.70;0.70;;;;;;;17.23;47.68;98896.19;4977920;28;20460;-67
2022/04/07 03:06:09;;;;;;;4.03;0.85;;;;;;;17.24;47.02;98895.13;4977179;28;20117;-67
2022/04/07 03:08:34;;;;;;;5.40;0.50;;;;;;;17.25;46.84;98883.28;4977409;28;20473;-67
2022/04/07 03:11:00;;;;;;;0.88;0.55;;;;;;;17.26;46.17;98879.50;4977494;28;20077;-67
2022/04/07 03:13:26;;;;;;;2.60;0.70;;;;;;;17.27;45.73;98862.22;4977514;28;20388;-66
2022/04/07 03:15:52;;;;;;;0.77;0.55;;;;;;;17.28;46.96;98883.63;4977281;28;20103;-67
2022/04/07 03:18:17;;;;;;;2.58;0.30;;;;;;;17.30;46.75;98869.91;4977351;28;20477;-67
2022/04/07 03:20:43;;;;;;;6.13;0.55;;;;;;;17.30;45.59;98862.63;4977348;28;20408;-67
2022/04/07 03:23:08;;;;;;;1.40;0.50;;;;;;;17.31;46.62;98856.13;4977284;28;20462;-67
2022/04/07 03:25:34;;;;;;;2.47;0.40;;;;;;;17.34;46.94;98860.28;4977000;28;20033;-67
2022/04/07 03:27:59;;;;;;;4.78;0.82;;;;;;;17.35;46.56;98851.13;4977255;28;20487;-66
2022/04/07 03:30:24;;;;;;;2.53;0.63;;;;;;;17.35;46.78;98848.41;4977011;28;20033;-67
2022/04/07 03:32:50;;;;;;;1.15;0.55;;;;;;;17.35;46.75;98840.28;4976755;28;20023;-67
2022/04/07 03:35:15;;;;;;;1.42;0.60;;;;;;;17.35;45.94;98834.88;4976905;28;20045;-67
2022/04/07 03:37:41;;;;;;;2.53;0.73;;;;;;;17.34;46.68;98825.94;4975412;28;20110;-67
2022/04/07 03:40:08;;;;;;;4.18;0.68;;;;;;;17.33;45.98;98809.94;4976789;28;20062;-67
2022/04/07 03:42:33;;;;;;;2.40;0.60;;;;;;;17.37;45.68;98811.13;4976807;28;20477;-67
2022/04/07 03:44:58;;;;;;;6.57;1.08;;;;;;;17.38;47.33;98823.63;4976256;28;20114;-67
2022/04/07 03:47:24;;;;;;;1.67;0.30;;;;;;;17.35;47.44;98819.47;4975293;28;20030;-68
2022/04/07 03:49:49;;;;;;;1.98;0.68;;;;;;;17.34;46.71;98806.97;4976979;28;20035;-66
2022/04/07 03:52:15;;;;;;;1.42;0.70;;;;;;;17.28;46.08;98807.06;4976745;28;20026;-67
2022/04/07 03:54:41;;;;;;;0.82;0.38;;;;;;;17.23;46.74;98804.16;4976604;28;20391;-67
2022/04/07 03:57:06;;;;;;;0.57;0.45;;;;;;;17.18;46.75;98795.91;4976421;28;20015;-67
2022/04/07 03:59:35;;;;;;;6.70;0.88;;;;;;;17.16;47.45;98792.59;4976377;28;20093;-66
2022/04/07 04:02:00;;;;;;;1.85;0.65;;;;;;;17.13;48.09;98782.22;4976439;28;20070;-67
2022/04/07 04:04:26;;;;;;;1.35;0.98;;;;;;;17.11;47.88;98773.50;4976328;28;20038;-67
2022/04/07 04:06:51;;;;;;;1.80;0.55;;;;;;;17.10;47.61;98767.25;4976504;28;20078;-67
2022/04/07 04:09:16;;;;;;;2.78;0.90;;;;;;;17.09;46.84;98770.16;4976579;28;20077;-67
2022/04/07 04:11:42;;;;;;;3.65;0.70;;;;;;;17.07;47.86;98762.28;4976125;28;20026;-67
2022/04/07 04:14:07;;;;;;;1.45;0.60;;;;;;;17.07;47.36;98756.03;4976503;28;20022;-67
2022/04/07 04:16:33;;;;;;;0.80;0.63;;;;;;;17.05;47.58;98750.84;4976109;28;20023;-67
2022/04/07 04:18:58;;;;;;;2.42;1.00;;;;;;;17.01;48.77;98738.81;4976203;28;20030;-67
2022/04/07 04:21:23;;;;;;;0.82;0.55;;;;;;;16.95;48.46;98736.16;4976008;28;20030;-68
2022/04/07 04:23:49;;;;;;;4.30;1.38;;;;;;;16.86;48.16;98717.50;4975972;28;20391;-69
2022/04/07 04:26:14;;;;;;;1.75;0.80;;;;;;;16.81;47.40;98719.22;4975860;28;20457;-69
2022/04/07 04:28:40;;;;;;;2.30;1.02;;;;;;;16.71;47.65;98714.31;4975755;28;20029;-69
2022/04/07 04:31:05;;;;;;;2.60;0.98;;;;;;;16.64;49.22;98705.41;4974794;28;20027;-68
2022/04/07 04:33:30;;;;;;;2.88;0.90;;;;;;;16.58;48.70;98697.38;4974813;28;20034;-68
2022/04/07 04:35:57;;;;;;;2.15;0.60;;;;;;;16.56;48.40;98705.69;4975724;28;20050;-68
2022/04/07 04:38:22;;;;;;;3.13;0.73;;;;;;;16.51;48.52;98686.59;4974488;28;20031;-68
2022/04/07 04:40:48;;;;;;;2.25;0.98;;;;;;;16.50;48.09;98687.63;4958298;28;20428;-68
2022/04/07 04:43:13;;;;;;;2.75;0.75;;;;;;;16.45;48.62;98676.66;4975367;28;20031;-68
2022/04/07 04:45:38;;;;;;;1.17;0.65;;;;;;;16.37;48.69;98679.63;4974245;28;20031;-67
2022/04/07 04:48:04;;;;;;;0.90;0.60;;;;;;;16.32;50.12;98665.94;4975601;28;20114;-67
2022/04/07 04:50:29;;;;;;;2.22;0.70;;;;;;;16.32;49.04;98663.25;4975591;28;20038;-66
2022/04/07 04:52:55;;;;;;;1.85;0.70;;;;;;;16.32;48.77;98660.53;4975176;28;20031;-67
2022/04/07 04:55:20;;;;;;;4.63;0.65;;;;;;;16.31;48.88;98648.06;4975502;28;20047;-67
2022/04/07 04:57:45;;;;;;;3.13;0.82;;;;;;;16.33;50.09;98655.97;4975692;28;20389;-67
2022/04/07 05:00:11;;;;;;;2.45;1.02;;;;;;;16.35;50.11;98646.59;4975248;28;20085;-67
2022/04/07 05:02:39;;;;;;;3.08;0.70;;;;;;;16.36;50.33;98629.31;4975433;28;20031;-65
2022/04/07 05:05:06;;;;;;;1.17;0.40;;;;;;;16.39;48.73;98633.47;4974537;28;20480;-67
2022/04/07 05:07:34;;;;;;;2.35;0.70;;;;;;;16.42;50.32;98628.44;4973952;28;20038;-66
2022/04/07 05:10:00;;;;;;;2.38;0.82;;;;;;;16.42;49.16;98633.00;4956760;28;20404;-67
2022/04/07 05:12:26;;;;;;;0.45;0.45;;;;;;;16.45;50.40;98630.69;4956175;28;20043;-67
2022/04/07 05:14:52;;;;;;;4.63;0.77;;;;;;;16.45;49.61;98622.59;4955956;28;20050;-68
2022/04/07 05:17:19;;;;;;;0.75;0.75;;;;;;;16.49;50.34;98628.41;4954614;29;20110;-67
2022/04/07 05:19:45;;;;;;;0.60;0.60;;;;;;;16.49;50.14;98629.22;4955950;28;20034;-66
2022/04/07 05:22:11;;;;;;;2.47;0.52;;;;;;;16.49;49.87;98629.22;4955680;28;20033;-68
2022/04/07 05:24:36;;;;;;;2.45;0.40;;;;;;;16.51;49.52;98626.28;4955911;28;20110;-67
2022/04/07 05:27:02;;;;;;;3.83;0.82;;;;;;;16.48;50.38;98627.56;4955537;28;20027;-67
2022/04/07 05:29:27;;;;;;;1.83;0.75;;;;;;;16.46;48.98;98629.66;4955650;28;20032;-68
2022/04/07 05:31:52;;;;;;;4.00;0.70;;;;;;;16.43;50.25;98619.28;4955742;28;20110;-69
2022/04/07 05:34:18;;;;;;;2.35;0.60;;;;;;;16.40;49.23;98635.94;4955850;28;20086;-69
2022/04/07 05:36:43;;;;;;;1.70;0.70;;;;;;;16.34;49.65;98593.59;4954514;29;20019;-69
2022/04/07 05:39:10;;;;;;;0.50;0.50;;;;;;;16.30;50.88;98595.09;4956157;28;20039;-68
2022/04/07 05:41:35;;;;;;;1.95;0.65;;;;;;;16.27;50.42;98592.84;4971010;28;20031;-69
2022/04/07 05:44:01;;;;;;;1.75;0.50;;;;;;;16.23;50.92;98602.41;4955355;28;20396;-68
2022/04/07 05:46:26;;;;;;;0.57;0.57;;;;;;;16.19;50.22;98579.59;4956118;28;20023;-68
2022/04/07 05:48:51;;;;;;;4.43;0.88;;;;;;;16.17;49.90;98568.16;4955202;28;20035;-68
2022/04/07 05:51:17;;;;;;;1.73;0.73;;;;;;;16.16;50.12;98558.44;4955271;28;20134;-67
2022/04/07 05:53:42;;;;;;;3.40;0.55;;;;;;;16.19;51.08;98541.78;4955353;28;20035;-67
2022/04/07 05:56:08;;;;;;;0.50;0.50;;;;;;;16.16;49.51;98536.81;4955363;28;20016;-66
2022/04/07 05:58:33;;;;;;;0.75;0.45;;;;;;;16.15;49.59;98535.16;4955297;28;20438;-66
2022/04/07 06:00:58;;;;;;;2.47;0.40;;;;;;;16.17;50.04;98516.84;4954089;28;20055;-67
2022/04/07 06:03:24;;;;;;;0.80;0.22;;;;;;;16.19;50.67;98515.56;4955530;28;20027;-68
2022/04/07 06:05:52;;;;;;;0.90;0.50;;;;;;;16.23;49.62;98511.38;4958064;28;20023;-67
2022/04/07 06:08:19;;;;;;;0.45;0.30;;;;;;;16.21;48.98;98494.59;4959048;28;20027;-67
2022/04/07 06:10:44;;;;;;;2.40;0.65;;;;;;;16.24;50.51;98486.03;4959562;28;20446;-67
2022/04/07 06:13:11;;;;;;;2.05;0.47;;;;;;;16.25;49.39;98479.56;4959351;28;20106;-67
2022/04/07 06:15:37;;;;;;;4.43;0.70;;;;;;;16.26;49.66;98477.69;4959328;28;20024;-67
2022/04/07 06:18:02;;;;;;;2.08;0.40;;;;;;;16.26;50.22;98475.00;4957797;28;20031;-67
2022/04/07 06:20:28;;;;;;;1.45;0.50;;;;;;;16.27;50.40;98463.16;4959164;28;20027;-69
2022/04/07 06:22:53;;;;;;;0.68;0.52;;;;;;;16.28;49.12;98438.59;4958972;28;20027;-68
2022/04/07 06:25:19;;;;;;;1.45;0.30;;;;;;;16.34;50.17;98431.47;4958894;28;20036;-68
2022/04/07 06:27:45;;;;;;;3.22;0.60;;;;;;;16.35;50.17;98422.34;4958940;28;20034;-67
2022/04/07 06:30:13;;;;;;;3.78;0.57;;;;;;;16.38;48.97;98405.66;4959017;28;20102;-68
2022/04/07 06:32:39;;;;;;;2.13;0.40;;;;;;;16.41;49.69;98391.72;4959027;28;20035;-67
2022/04/07 06:35:09;;;;;;;3.13;0.73;;;;;;;16.41;50.67;98389.00;4957490;29;20397;-68
2022/04/07 06:37:49;;;;;;;0.70;0.70;;;;;;;16.47;50.47;98376.47;4958875;28;20023;-68
2022/04/07 06:40:18;;;;;;;0.50;0.38;;;;;;;16.53;49.26;98359.31;4959018;28;20062;-69
2022/04/07 06:42:44;;;;;;;0.63;0.40;;;;;;;16.66;48.85;98351.91;4957542;29;20051;-68
2022/04/07 06:45:09;;;;;;;1.80;0.50;;;;;;;16.81;49.30;98343.38;4957561;29;20385;-68
2022/04/07 06:47:41;;;;;;;3.85;0.57;;;;;;;16.88;49.03;98336.84;4958398;28;20027;-67
2022/04/07 06:50:08;;;;;;;2.58;0.35;;;;;;;16.93;48.73;98319.06;4958694;28;20032;-67
2022/04/07 06:52:34;;;;;;;0.40;0.32;;;;;;;16.98;49.38;98309.22;4958390;28;20023;-67
2022/04/07 06:54:59;;;;;;;2.35;0.40;;;;;;;17.06;49.47;98302.63;4957076;28;20512;-67
2022/04/07 06:57:25;;;;;;;0.90;0.68;;;;;;;17.10;49.91;98307.38;4958481;28;20478;-67
2022/04/07 06:59:50;;;;;;;3.35;0.20;;;;;;;17.15;49.48;98303.94;4958593;28;20473;-67
2022/04/07 07:02:15;;;;;;;0.93;0.40;;;;;;;17.18;49.41;98300.78;4958188;28;20066;-67
2022/04/07 07:04:41;;;;;;;0.50;0.30;;;;;;;17.20;49.52;98285.13;4958484;28;20031;-67
2022/04/07 07:07:06;;;;;;;5.45;0.32;;;;;;;17.21;49.25;98292.19;4958134;28;20023;-68
2022/04/07 07:09:31;;;;;;;0.10;0.10;;;;;;;17.22;49.96;98310.09;4958218;28;20035;-68
2022/04/07 07:11:57;;;;;;;3.92;0.88;;;;;;;17.28;48.97;98282.09;4958132;28;20106;-67
2022/04/07 07:14:22;;;;;;;2.90;0.30;;;;;;;17.25;49.18;98255.50;4958254;28;20038;-67
2022/04/07 07:16:48;;;;;;;0.65;0.30;;;;;;;17.22;48.98;98253.28;4957455;28;20019;-68
2022/04/07 07:19:15;;;;;;;3.92;0.20;;;;;;;17.24;49.08;98251.16;4958379;28;20538;-68
2022/04/07 07:21:40;;;;;;;0.47;0.38;;;;;;;17.26;49.71;98230.09;4957883;28;20396;-67
2022/04/07 07:24:06;;;;;;;1.60;0.38;;;;;;;17.28;48.42;98234.19;4956748;28;20098;-67
2022/04/07 07:26:31;;;;;;;0.50;0.17;;;;;;;17.28;49.81;98233.41;4958020;28;20039;-67
2022/04/07 07:28:57;;;;;;;0.30;0.25;;;;;;;17.27;49.05;98226.31;4957984;28;20394;-67
2022/04/07 07:31:22;;;;;;;1.63;0.38;;;;;;;17.14;50.42;98226.56;4958136;28;20054;-66
2022/04/07 07:33:48;;;;;;;0.52;0.32;;;;;;;17.05;49.13;98246.91;4958145;28;20464;-68
2022/04/07 07:36:13;;;;;;;1.58;0.20;;;;;;;16.96;50.60;98218.56;4957879;28;20020;-70
2022/04/07 07:38:39;;;;;;;1.33;0.20;;;;;;;16.89;50.71;98208.66;4957227;29;20110;-69
2022/04/07 07:41:05;;;;;;;0.45;0.20;;;;;;;16.82;49.83;98199.84;4957663;28;20059;-70
2022/04/07 07:43:31;;;;;;;1.65;0.20;;;;;;;16.81;50.71;98184.69;4957381;28;20050;-69
2022/04/07 07:45:56;;;;;;;0.52;0.40;;;;;;;16.81;50.00;98178.44;4957297;28;20508;-68
2022/04/07 07:48:28;;;;;;;1.40;0.20;;;;;;;16.79;50.41;98178.69;4956142;29;20042;-68
2022/04/07 07:50:54;;;;;;;2.67;0.63;;;;;;;16.80;50.02;98180.34;4956149;29;20081;-67
2022/04/07 07:53:20;;;;;;;0.38;0.13;;;;;;;16.83;50.46;98165.53;4957416;28;20062;-66
2022/04/07 07:55:46;;;;;;;0.73;0.13;;;;;;;16.86;50.92;98165.88;4957357;28;20024;-67
2022/04/07 07:58:12;;;;;;;0.50;0.30;;;;;;;16.89;50.20;98157.28;4957773;28;20027;-67
2022/04/07 08:00:38;;;;;;;0.20;0.20;;;;;;;16.93;50.13;98148.72;4957280;28;20114;-67
2022/04/07 08:03:03;;;;;;;0.95;0.03;;;;;;;16.98;50.83;98146.94;4957298;28;20497;-66
2022/04/07 08:05:28;;;;;;;0.10;0.10;;;;;;;16.98;51.62;98116.38;4957203;29;20035;-67
2022/04/07 08:07:54;;;;;;;0.20;0.20;;;;;;;17.09;50.45;98134.47;4957520;28;20038;-67
2022/04/07 08:10:19;;;;;;;0.98;0.10;;;;;;;17.12;51.36;98137.53;4957022;28;20026;-67
2022/04/07 08:12:44;;;;;;;0.10;0.10;;;;;;;17.16;50.74;98143.28;4957150;28;20105;-67
2022/04/07 08:15:10;;;;;;;0.00;0.00;;;;;;;17.14;50.96;98129.19;4955871;29;20492;-67
2022/04/07 08:17:35;;;;;;;0.00;0.00;;;;;;;17.17;51.48;98134.94;4956882;28;20396;-67
2022/04/07 08:20:02;;;;;;;0.20;0.08;;;;;;;17.22;51.10;98109.88;4955923;29;20035;-68
2022/04/07 08:22:27;;;;;;;0.20;0.20;;;;;;;17.37;51.16;98118.31;4956958;28;20027;-67
2022/04/07 08:24:55;;;;;;;2.72;0.08;;;;;;;17.45;50.94;98109.81;4956519;28;20023;-67
2022/04/07 08:27:21;;;;;;;0.22;0.10;;;;;;;17.46;50.51;98106.88;4957302;28;20027;-66
2022/04/07 08:29:46;;;;;;;0.10;0.10;;;;;;;17.47;51.48;98123.94;4958187;28;20027;-67
2022/04/07 08:32:12;;;;;;;0.30;0.20;;;;;;;17.48;50.69;98114.75;4956839;28;20389;-68
2022/04/07 08:34:37;;;;;;;0.32;0.20;;;;;;;17.50;50.70;98109.94;4956411;28;20023;-69
2022/04/07 08:37:03;;;;;;;0.15;0.15;;;;;;;17.52;51.33;98113.22;4955586;29;20051;-69
2022/04/07 08:39:29;;;;;;;1.45;0.17;;;;;;;17.54;50.61;98127.34;4956459;28;20033;-68
2022/04/07 08:41:54;;;;;;;0.10;0.10;;;;;;;17.54;50.78;98118.41;4956356;28;20110;-68
2022/04/07 08:44:21;;;;;;;0.13;0.10;;;;;;;17.51;51.23;98108.84;4955215;29;20067;-69
2022/04/07 08:46:56;;;;;;;0.30;0.22;;;;;;;17.55;51.90;98118.19;4956575;28;20027;-69
2022/04/07 08:49:22;;;;;;;0.43;0.15;;;;;;;17.59;51.43;98105.78;4956352;28;20031;-68
2022/04/07 08:51:48;;;;;;;0.45;0.15;;;;;;;17.70;52.32;98096.00;4956662;28;20046;-68
2022/04/07 08:54:13;;;;;;;0.30;0.30;;;;;;;17.73;51.13;98101.75;4955395;29;20062;-67
2022/04/07 08:56:39;;;;;;;0.30;0.20;;;;;;;17.66;52.19;98120.03;4956509;28;20394;-68
2022/04/07 08:59:04;;;;;;;0.60;0.40;;;;;;;17.63;52.81;98119.69;4956475;28;20031;-69
2022/04/07 09:01:30;;;;;;;1.95;0.22;;;;;;;17.64;51.68;98127.56;4955943;28;20039;-69
2022/04/07 09:03:55;;;;;;;0.20;0.20;;;;;;;17.68;52.32;98120.59;4955884;28;20027;-68
2022/04/07 09:06:21;;;;;;;0.40;0.22;;;;;;;17.72;51.94;98121.78;4956117;28;20034;-69
2022/04/07 09:08:47;;;;;;;0.20;0.00;;;;;;;17.74;52.55;98125.06;4954704;28;20078;-69
2022/04/07 09:11:13;;;;;;;0.10;0.10;;;;;;;17.77;52.50;98135.41;4954754;28;20031;-69
2022/04/07 09:13:41;;;;;;;0.20;0.20;;;;;;;17.74;52.17;98152.13;4954991;29;20509;-69
2022/04/07 09:16:13;;;;;;;0.32;0.20;;;;;;;17.66;52.19;98160.63;4954766;29;20078;-69
2022/04/07 09:18:44;;;;;;;1.58;0.17;;;;;;;17.62;52.28;98159.47;4955634;28;20535;-70
2022/04/07 09:21:24;;;;;;;0.98;0.20;;;;;;;17.62;51.69;98173.00;4954528;29;20097;-69
2022/04/07 09:23:49;;;;;;;0.32;0.30;;;;;;;17.59;52.34;98167.25;4954663;29;20031;-69
2022/04/07 09:26:15;;;;;;;0.60;0.50;;;;;;;17.58;52.19;98168.31;4955629;28;20561;-70
2022/04/07 09:28:41;;;;;;;0.70;0.20;;;;;;;17.59;51.67;98183.50;4955681;28;20078;-69
2022/04/07 09:31:11;;;;;;;1.95;0.35;;;;;;;17.54;52.72;98178.78;4954573;28;20027;-68
2022/04/07 09:33:36;;;;;;;0.45;0.10;;;;;;;17.53;51.75;98181.72;4955790;28;20096;-69
2022/04/07 09:36:07;;;;;;;1.17;0.20;;;;;;;17.47;52.53;98184.28;4955736;28;20110;-69
2022/04/07 09:38:34;;;;;;;0.28;0.10;;;;;;;17.45;52.92;98186.41;4955647;28;20056;-68
2022/04/07 09:41:06;;;;;;;0.95;0.20;;;;;;;17.44;52.75;98176.66;4954431;28;20485;-68
2022/04/07 09:43:49;;;;;;;0.20;0.20;;;;;;;17.52;52.75;98194.41;4954811;29;20102;-67
2022/04/07 09:46:16;;;;;;;0.38;0.38;;;;;;;17.62;52.74;98197.34;4955801;28;20478;-67
2022/04/07 09:49:01;;;;;;;0.20;0.20;;;;;;;17.62;53.01;98191.94;4956042;28;20031;-68
2022/04/07 09:51:27;;;;;;;0.47;0.20;;;;;;;17.69;52.43;98200.78;4955515;28;20038;-67
2022/04/07 09:53:57;;;;;;;0.55;0.30;;;;;;;17.78;51.47;98184.97;4955737;28;20083;-66
2022/04/07 09:56:27;;;;;;;0.52;0.20;;;;;;;17.86;52.15;98188.13;4955644;28;20023;-67
2022/04/07 09:58:53;;;;;;;0.25;0.20;;;;;;;17.87;51.81;98197.88;4955684;28;20086;-67
2022/04/07 10:01:19;;;;;;;2.05;0.30;;;;;;;17.92;51.80;98189.84;4955269;28;20082;-67
2022/04/07 10:03:45;;;;;;;0.40;0.15;;;;;;;18.07;51.03;98221.84;4955613;28;20446;-67
2022/04/07 10:06:11;;;;;;;0.13;0.10;;;;;;;18.13;50.08;98203.78;4954374;29;20384;-67
2022/04/07 10:08:37;;;;;;;0.10;0.10;;;;;;;18.53;49.27;98215.44;4963841;28;20023;-67
2022/04/07 10:11:03;;;;;;;0.32;0.20;;;;;;;18.83;49.28;98210.53;4973305;28;20031;-67
2022/04/07 10:13:30;;;;;;;0.57;0.30;;;;;;;19.22;48.74;98208.69;4974923;28;20026;-67
2022/04/07 10:15:56;;;;;;;1.85;0.22;;;;;;;19.45;48.50;98218.56;4973599;28;20105;-66
2022/04/07 10:18:30;;;;;;;0.38;0.10;;;;;;;19.38;48.80;98207.00;4973478;28;20026;-66
2022/04/07 10:20:57;;;;;;;1.52;0.20;;;;;;;19.37;48.37;98195.34;4973431;28;20122;-67
2022/04/07 10:23:46;;;;;;;3.90;0.30;;;;;;;20.08;47.12;98218.84;4973264;28;20035;-67
2022/04/07 10:26:12;;;;;;;1.65;0.15;;;;;;;20.68;46.30;98205.09;4974556;28;20046;-67
2022/04/07 10:28:37;;;;;;;0.30;0.15;;;;;;;21.71;44.71;98211.84;4973477;28;20042;-67
2022/04/07 10:31:14;;;;;;;0.80;0.52;;;;;;;22.56;42.99;98203.13;4974635;28;20035;-67
2022/04/07 10:33:46;;;;;;;0.47;0.30;;;;;;;23.40;42.87;98213.56;4974529;28;20055;-66
2022/04/07 10:36:18;;;;;;;0.50;0.10;;;;;;;23.74;42.57;98224.69;4974603;28;20023;-67
2022/04/07 10:38:49;;;;;;;1.10;0.30;;;;;;;24.48;41.73;98207.44;4974723;28;20030;-67
2022/04/07 10:41:36;;;;;;;0.52;0.10;;;;;;;25.55;40.10;98224.69;4974694;28;20035;-67
2022/04/07 10:44:11;;;;;;;2.17;0.28;;;;;;;26.40;39.26;98226.47;4974225;28;20023;-66
2022/04/07 10:46:36;;;;;;;0.20;0.10;;;;;;;27.05;38.82;98230.16;4974042;28;20118;-67
2022/04/07 10:49:09;;;;;;;0.15;0.10;;;;;;;27.68;38.12;98232.41;4974286;28;20163;-67
2022/04/07 10:51:52;;;;;;;0.93;0.20;;;;;;;28.24;36.43;98230.22;4975942;28;20033;-66
2022/04/07 10:54:17;;;;;;;0.60;0.22;;;;;;;28.56;36.72;98220.16;4978544;28;20388;-66
2022/04/07 10:56:48;;;;;;;0.68;0.30;;;;;;;28.89;36.12;98229.91;4978333;28;20019;-66
2022/04/07 10:59:16;;;;;;;0.10;0.10;;;;;;;29.12;34.52;98228.75;4978201;28;20029;-66
2022/04/07 11:01:42;;;;;;;1.27;0.30;;;;;;;29.27;35.19;98231.19;4977746;28;20523;-67
2022/04/07 11:04:25;;;;;;;1.13;0.20;;;;;;;29.43;34.51;98202.06;4977916;28;20098;-67
2022/04/07 11:09:43;;;;;;;0.73;0.45;;;;;;;29.28;33.90;98232.81;4978414;28;20031;-66
2022/04/07 11:12:09;;;;;;;0.57;0.30;;;;;;;29.70;33.12;98238.91;4978281;28;20031;-66
2022/04/07 11:14:35;;;;;;;2.85;0.38;;;;;;;29.93;33.03;98234.97;4977575;28;20572;-66
2022/04/07 11:17:02;;;;;;;0.98;0.30;;;;;;;30.19;32.15;98241.41;4977417;28;20110;-67
2022/04/07 11:19:44;;;;;;;0.30;0.30;;;;;;;30.43;31.89;98261.16;4975898;28;20038;-66
2022/04/07 11:22:12;;;;;;;0.73;0.20;;;;;;;30.48;32.08;98266.56;4977575;28;20027;-67
2022/04/07 11:24:52;;;;;;;0.45;0.30;;;;;;;30.73;31.14;98244.78;4977089;28;20485;-67
2022/04/07 11:27:35;;;;;;;0.52;0.22;;;;;;;30.94;30.79;98251.34;4977158;28;20027;-67
2022/04/07 11:30:08;;;;;;;1.20;0.38;;;;;;;30.66;30.91;98255.50;4976598;28;20022;-67
2022/04/07 11:32:35;;;;;;;0.63;0.30;;;;;;;29.49;31.61;98265.38;4970282;28;20021;-67
2022/04/07 11:35:16;;;;;;;1.55;0.30;;;;;;;29.90;31.16;98277.03;4957723;28;20054;-67